Time;durP1;ratioP1;P1;durP2;ratioP2;P2;SDS_P1;SDS_P2;PMS_P1;PMS_P2;Temp;Humidity;BMP_temperature;BMP_pressure;BME280_temperature;BME280_humidity;BME280_pressure;Samples;Min_cycle;Max_cycle;Signal;HPM_P1;HPM_P2
2021/12/09 00:01:01;;;;;;;5.75;3.17;;;;;;;10.20;76.21;100820.31;1866433;75;21100;-61
2021/12/09 00:03:34;;;;;;;10.28;3.83;;;;;;;10.25;76.10;100829.34;1865904;77;21099;-61
2021/12/09 00:06:05;;;;;;;11.40;5.87;;;;;;;10.30;75.90;100833.98;1865916;77;21332;-61
2021/12/09 00:08:34;;;;;;;12.95;5.92;;;;;;;10.34;75.77;100835.62;1866217;76;21154;-61
2021/12/09 00:11:05;;;;;;;7.10;4.37;;;;;;;10.35;75.59;100847.88;1865875;77;21102;-61
2021/12/09 00:13:34;;;;;;;9.23;3.95;;;;;;;10.36;75.49;100848.73;1865990;77;21178;-60
2021/12/09 00:16:04;;;;;;;7.30;2.90;;;;;;;10.35;75.33;100852.30;1865908;77;21589;-60
2021/12/09 00:18:33;;;;;;;7.55;3.30;;;;;;;10.33;75.25;100852.34;1866004;76;21040;-60
2021/12/09 00:21:01;;;;;;;7.40;2.90;;;;;;;10.33;75.21;100860.24;1865946;77;21037;-60
2021/12/09 00:23:30;;;;;;;6.72;3.00;;;;;;;10.32;75.10;100865.55;1865929;77;21106;-60
2021/12/09 00:25:59;;;;;;;4.40;2.87;;;;;;;10.30;75.06;100857.67;1866039;77;21041;-60
2021/12/09 00:28:28;;;;;;;7.28;3.58;;;;;;;10.30;75.04;100859.45;1866039;77;21546;-60
2021/12/09 00:30:57;;;;;;;4.50;3.17;;;;;;;10.31;75.07;100866.02;1865894;76;21134;-60
2021/12/09 00:33:26;;;;;;;11.10;2.85;;;;;;;10.33;75.02;100858.92;1865948;77;21549;-60
2021/12/09 00:35:57;;;;;;;7.00;3.50;;;;;;;10.35;75.02;100866.77;1865839;76;21017;-60
2021/12/09 00:38:41;;;;;;;8.28;3.87;;;;;;;10.35;74.87;100861.04;1865868;76;21092;-60
2021/12/09 00:41:12;;;;;;;9.38;2.62;;;;;;;10.38;75.07;100865.33;1877797;74;21085;-60
2021/12/09 00:43:43;;;;;;;7.00;2.70;;;;;;;10.40;75.09;100869.64;1881276;76;21539;-60
2021/12/09 00:46:12;;;;;;;5.92;3.08;;;;;;;10.41;74.94;100858.17;1881116;76;21070;-60
2021/12/09 00:48:42;;;;;;;7.87;2.67;;;;;;;10.45;74.87;100877.81;1881021;76;21504;-60
2021/12/09 00:51:11;;;;;;;9.50;3.08;;;;;;;10.45;74.83;100878.67;1881148;76;21496;-60
2021/12/09 00:53:40;;;;;;;7.62;2.87;;;;;;;10.47;74.70;100886.52;1881130;76;21516;-61
2021/12/09 00:56:11;;;;;;;6.05;2.20;;;;;;;10.48;74.63;100880.35;1881111;76;21136;-60
2021/12/09 00:58:41;;;;;;;7.17;2.85;;;;;;;10.49;74.53;100880.73;1881375;76;21046;-60
2021/12/09 01:01:12;;;;;;;6.58;2.33;;;;;;;10.49;74.45;100887.31;1881179;76;21022;-60
2021/12/09 01:03:43;;;;;;;6.85;2.30;;;;;;;10.49;74.36;100895.22;1881136;76;21527;-60
2021/12/09 01:06:11;;;;;;;6.33;2.30;;;;;;;10.47;74.31;100895.73;1881122;76;21046;-60
2021/12/09 01:08:41;;;;;;;6.10;2.70;;;;;;;10.46;74.26;100904.09;1881114;76;21062;-60
2021/12/09 01:11:11;;;;;;;6.55;2.70;;;;;;;10.45;74.21;100897.56;1881156;76;21022;-60
2021/12/09 01:13:42;;;;;;;5.33;2.42;;;;;;;10.44;74.15;100907.24;1881043;76;21481;-60
2021/12/09 01:16:12;;;;;;;5.37;2.30;;;;;;;10.42;74.12;100910.36;1881182;75;21041;-60
2021/12/09 01:18:42;;;;;;;5.62;2.50;;;;;;;10.39;74.14;100912.66;1881087;76;21124;-60
2021/12/09 01:21:12;;;;;;;5.58;2.58;;;;;;;10.39;74.11;100915.29;1881233;76;21074;-60
2021/12/09 01:23:41;;;;;;;7.50;3.15;;;;;;;10.39;74.17;100921.87;1881219;76;21104;-61
2021/12/09 01:26:11;;;;;;;5.20;2.67;;;;;;;10.40;74.13;100920.97;1880990;76;21116;-61
2021/12/09 01:28:55;;;;;;;6.72;2.60;;;;;;;10.40;74.08;100921.40;1881111;75;21493;-60
2021/12/09 01:31:30;;;;;;;7.17;2.75;;;;;;;10.41;74.30;100923.13;1881581;75;21014;-60
2021/12/09 01:34:01;;;;;;;8.30;2.95;;;;;;;10.40;74.13;100927.55;1881594;75;21066;-60
2021/12/09 01:36:26;;;;;;;7.47;2.27;;;;;;;10.39;74.10;100927.59;1881477;75;21049;-60
2021/12/09 01:38:55;;;;;;;7.30;2.80;;;;;;;10.38;74.06;100937.70;1881094;76;21274;-60
2021/12/09 01:41:24;;;;;;;8.40;2.90;;;;;;;10.36;74.02;100941.70;1877222;75;21159;-68
2021/12/09 01:43:54;;;;;;;6.62;3.05;;;;;;;10.34;74.02;100955.37;1882908;75;21053;-68
2021/12/09 01:46:23;;;;;;;6.35;2.87;;;;;;;10.31;74.00;100950.25;1895170;76;21041;-69
2021/12/09 01:48:53;;;;;;;8.58;3.10;;;;;;;10.28;74.02;100958.67;1871987;76;21038;-68
2021/12/09 01:51:22;;;;;;;6.40;3.08;;;;;;;10.28;74.01;100959.98;1871604;76;21106;-66
2021/12/09 01:53:51;;;;;;;7.00;3.02;;;;;;;10.24;73.99;100966.66;1895222;76;21518;-64
2021/12/09 01:56:23;;;;;;;7.72;3.15;;;;;;;10.21;74.03;100964.58;1889308;76;21476;-65
2021/12/09 01:58:57;;;;;;;7.97;3.35;;;;;;;10.19;74.05;100967.73;1876666;76;21049;-68
2021/12/09 02:01:27;;;;;;;8.05;2.85;;;;;;;10.16;74.04;100975.71;1887882;75;21088;-61
2021/12/09 02:03:56;;;;;;;8.65;3.00;;;;;;;10.14;74.07;100978.85;1895394;76;21532;-61
2021/12/09 02:06:27;;;;;;;9.28;3.00;;;;;;;10.09;74.09;100979.45;1880065;75;21087;-61
2021/12/09 02:08:56;;;;;;;14.43;3.42;;;;;;;10.05;74.10;100987.47;1845504;78;21107;-62
2021/12/09 02:11:25;;;;;;;13.00;3.95;;;;;;;10.02;74.09;100990.19;1842258;77;21024;-62
2021/12/09 02:13:56;;;;;;;11.60;3.80;;;;;;;10.00;74.10;100992.02;1825612;78;21056;-61
2021/12/09 02:16:25;;;;;;;9.13;3.75;;;;;;;9.95;74.04;100995.25;1834443;76;21124;-64
2021/12/09 02:18:54;;;;;;;7.80;3.30;;;;;;;9.93;74.08;100996.22;1823598;78;21615;-61
2021/12/09 02:21:28;;;;;;;9.48;3.90;;;;;;;9.88;74.09;100999.44;1861400;76;21429;-60
2021/12/09 02:24:00;;;;;;;9.70;4.72;;;;;;;9.83;74.10;100999.57;1858465;77;21097;-61
2021/12/09 02:26:31;;;;;;;9.55;4.47;;;;;;;9.77;74.11;101002.41;1861607;77;21107;-62
2021/12/09 02:29:01;;;;;;;14.28;7.10;;;;;;;9.73;74.15;101000.79;1862336;77;21090;-61
2021/12/09 02:31:31;;;;;;;12.55;5.53;;;;;;;9.66;74.19;101004.94;1858449;76;21030;-60
2021/12/09 02:34:00;;;;;;;11.60;5.30;;;;;;;9.58;74.31;101011.33;1850373;77;21034;-60
2021/12/09 02:36:37;;;;;;;11.88;5.53;;;;;;;9.51;74.41;101011.11;1814389;79;21611;-60
2021/12/09 02:38:59;;;;;;;13.58;4.47;;;;;;;9.44;74.47;101026.19;1818721;78;21051;-61
2021/12/09 02:41:28;;;;;;;9.68;4.83;;;;;;;9.37;74.48;101033.41;1852247;77;21164;-60
2021/12/09 02:44:01;;;;;;;9.63;4.65;;;;;;;9.30;74.50;101028.38;1858582;77;21089;-61
2021/12/09 02:46:35;;;;;;;11.30;4.72;;;;;;;9.27;74.65;101034.56;1858070;77;21543;-61
2021/12/09 02:49:01;;;;;;;9.35;4.70;;;;;;;9.23;74.78;101031.17;1859694;75;21046;-66
2021/12/09 02:51:30;;;;;;;14.07;5.08;;;;;;;9.26;74.83;101038.97;1851048;76;21580;-65
2021/12/09 02:53:59;;;;;;;8.23;4.80;;;;;;;9.30;74.95;101038.89;1842537;76;21477;-67
2021/12/09 02:56:28;;;;;;;16.17;4.62;;;;;;;9.35;74.96;101042.22;1858798;76;21132;-65
2021/12/09 02:58:58;;;;;;;9.15;4.45;;;;;;;9.38;74.97;101047.41;1851808;76;21616;-66
2021/12/09 03:01:30;;;;;;;12.07;5.00;;;;;;;9.41;74.94;101044.70;1843289;76;21085;-69
2021/12/09 03:04:00;;;;;;;9.03;4.28;;;;;;;9.40;74.93;101048.22;1857929;77;21489;-65
2021/12/09 03:06:38;;;;;;;8.53;3.85;;;;;;;9.37;74.82;101054.44;1858650;76;21026;-67
2021/12/09 03:09:15;;;;;;;13.30;5.03;;;;;;;9.30;74.86;101052.89;1858698;77;21054;-63
2021/12/09 03:11:53;;;;;;;9.20;4.50;;;;;;;9.26;74.84;101060.00;1871624;76;21104;-63
2021/12/09 03:14:16;;;;;;;8.80;4.40;;;;;;;9.24;75.01;101068.80;1871325;76;21069;-70
2021/12/09 03:16:45;;;;;;;8.78;4.08;;;;;;;9.21;75.03;101077.65;1855538;77;21297;-72
2021/12/09 03:19:14;;;;;;;13.43;3.75;;;;;;;9.18;75.01;101079.50;1849470;77;21650;-66
2021/12/09 03:21:50;;;;;;;6.95;3.25;;;;;;;9.15;75.08;101084.40;1852086;77;21050;-62
2021/12/09 03:24:19;;;;;;;12.58;3.52;;;;;;;9.14;75.12;101093.17;1857049;77;21133;-70
2021/12/09 03:26:56;;;;;;;7.33;3.77;;;;;;;9.11;75.11;101095.91;1871495;76;21095;-63
2021/12/09 03:29:29;;;;;;;9.10;3.55;;;;;;;9.07;75.10;101103.43;1883637;75;21256;-62
2021/12/09 03:32:02;;;;;;;8.68;3.60;;;;;;;9.00;75.21;101101.87;1858729;77;21038;-63
2021/12/09 03:34:32;;;;;;;9.38;3.60;;;;;;;8.97;75.32;101109.84;1858905;77;21149;-61
2021/12/09 03:37:04;;;;;;;10.30;3.60;;;;;;;8.96;75.39;101112.05;1857950;76;21041;-63
2021/12/09 03:39:36;;;;;;;9.80;3.72;;;;;;;8.97;75.47;101121.21;1855147;77;21508;-64
2021/12/09 03:42:07;;;;;;;10.38;3.90;;;;;;;8.98;75.55;101118.13;1859520;77;21097;-66
2021/12/09 03:44:37;;;;;;;9.68;4.28;;;;;;;9.01;75.45;101123.30;1862407;77;21056;-64
2021/12/09 03:47:09;;;;;;;8.88;4.53;;;;;;;9.05;75.47;101131.51;1862052;77;21111;-65
2021/12/09 03:49:38;;;;;;;9.15;3.77;;;;;;;9.08;75.46;101131.44;1862258;76;21497;-64
2021/12/09 03:52:07;;;;;;;6.55;3.47;;;;;;;9.12;75.48;101134.39;1862211;77;21594;-65
2021/12/09 03:54:36;;;;;;;9.45;3.83;;;;;;;9.18;75.44;101131.58;1825644;77;21120;-66
2021/12/09 03:57:06;;;;;;;9.15;4.22;;;;;;;9.26;75.41;101141.45;1824909;78;21131;-64
2021/12/09 03:59:36;;;;;;;9.58;3.80;;;;;;;9.34;75.31;101143.02;1828505;77;21254;-62
2021/12/09 04:02:05;;;;;;;10.13;3.83;;;;;;;9.40;75.11;101145.46;1855973;77;21177;-65
2021/12/09 04:04:34;;;;;;;15.13;7.33;;;;;;;9.45;75.00;101154.09;1857796;76;21488;-65
2021/12/09 04:07:04;;;;;;;15.68;5.83;;;;;;;9.49;74.92;101153.55;1854839;76;21509;-61
2021/12/09 04:09:33;;;;;;;11.95;6.12;;;;;;;9.52;74.89;101153.48;1861671;75;21434;-64
2021/12/09 04:12:03;;;;;;;17.02;7.50;;;;;;;9.52;74.91;101153.02;1860670;77;21552;-65
2021/12/09 04:14:32;;;;;;;13.80;5.47;;;;;;;9.53;74.91;101154.72;1858540;77;21523;-65
2021/12/09 04:17:01;;;;;;;11.53;5.35;;;;;;;9.54;74.89;101161.72;1866368;76;21026;-64
2021/12/09 04:19:29;;;;;;;10.95;3.90;;;;;;;9.56;74.82;101162.53;1840142;77;21065;-64
2021/12/09 04:21:58;;;;;;;8.93;3.47;;;;;;;9.59;74.82;101159.83;1832948;76;21157;-66
2021/12/09 04:24:27;;;;;;;9.20;4.22;;;;;;;9.65;74.68;101168.84;1852157;77;21584;-64
2021/12/09 04:26:56;;;;;;;8.88;4.20;;;;;;;9.74;74.53;101173.42;1861603;77;21147;-61
2021/12/09 04:29:25;;;;;;;9.45;3.58;;;;;;;9.80;74.41;101175.89;1854238;77;21639;-63
2021/12/09 04:31:53;;;;;;;8.43;2.98;;;;;;;9.86;74.26;101178.34;1853793;77;21113;-63
2021/12/09 04:34:22;;;;;;;7.60;2.90;;;;;;;9.90;74.15;101177.80;1861102;77;21084;-61
2021/12/09 04:36:52;;;;;;;6.80;2.75;;;;;;;9.94;74.08;101186.88;1859582;77;21570;-62
2021/12/09 04:39:21;;;;;;;6.85;2.50;;;;;;;9.96;74.08;101186.81;1860543;77;21610;-62
2021/12/09 04:41:50;;;;;;;12.20;3.87;;;;;;;10.00;74.04;101187.16;1862742;77;21476;-60
2021/12/09 04:44:19;;;;;;;9.65;2.90;;;;;;;10.03;73.92;101192.30;1843021;76;21243;-67
2021/12/09 04:46:48;;;;;;;8.23;3.95;;;;;;;10.05;73.81;101192.69;1819170;77;21058;-59
2021/12/09 04:49:17;;;;;;;10.98;4.25;;;;;;;10.08;73.76;101200.08;1819093;79;21121;-61
2021/12/09 04:51:46;;;;;;;7.25;3.50;;;;;;;10.07;73.78;101197.91;1835682;77;21129;-60
2021/12/09 04:54:16;;;;;;;12.82;4.50;;;;;;;10.09;73.70;101197.84;1850665;77;21517;-60
2021/12/09 04:56:46;;;;;;;8.30;3.72;;;;;;;10.11;73.65;101203.48;1866229;76;21027;-61
2021/12/09 04:59:15;;;;;;;12.00;4.22;;;;;;;10.12;73.55;101210.91;1882044;76;21002;-60
2021/12/09 05:01:48;;;;;;;11.33;3.83;;;;;;;10.13;73.50;101208.70;1871550;76;21052;-60
2021/12/09 05:04:14;;;;;;;10.93;4.28;;;;;;;10.14;73.42;101213.05;1850084;77;21050;-60
2021/12/09 05:06:43;;;;;;;9.48;3.45;;;;;;;10.17;73.40;101217.77;1858522;76;21609;-61
2021/12/09 05:09:16;;;;;;;13.83;3.60;;;;;;;10.20;73.35;101215.52;1841707;75;21505;-61
2021/12/09 05:14:12;;;;;;;14.87;4.15;;;;;;;10.21;73.07;101218.07;1850620;77;21054;-61
2021/12/09 05:16:41;;;;;;;8.93;4.20;;;;;;;10.23;72.98;101221.98;1849380;77;21046;-60
2021/12/09 05:19:10;;;;;;;10.50;4.00;;;;;;;10.24;72.88;101225.03;1850636;77;21026;-61
2021/12/09 05:21:40;;;;;;;11.75;4.60;;;;;;;10.26;72.85;101231.11;1848800;77;21497;-60
2021/12/09 05:24:11;;;;;;;13.22;3.85;;;;;;;10.26;72.91;101237.69;1850593;77;21498;-61
2021/12/09 05:26:46;;;;;;;18.23;4.58;;;;;;;10.27;72.84;101239.39;1861472;76;21101;-61
2021/12/09 05:29:13;;;;;;;12.13;4.35;;;;;;;10.28;72.71;101241.59;1881746;76;21090;-61
2021/12/09 05:34:29;;;;;;;21.60;5.05;;;;;;;10.24;72.68;101246.09;1861932;76;21079;-59
2021/12/09 05:36:58;;;;;;;20.90;4.85;;;;;;;10.21;72.53;101250.12;1862820;76;21114;-60
2021/12/09 05:39:27;;;;;;;17.67;4.50;;;;;;;10.17;72.46;101246.71;1849398;77;21181;-60
2021/12/09 05:41:56;;;;;;;22.62;4.80;;;;;;;10.20;72.45;101253.21;1857041;77;21467;-59
2021/12/09 05:44:25;;;;;;;13.78;3.25;;;;;;;10.26;72.53;101256.11;1861820;77;21549;-59
2021/12/09 05:46:54;;;;;;;16.75;3.80;;;;;;;10.36;72.44;101257.58;1861321;76;21435;-59
2021/12/09 05:49:23;;;;;;;11.53;3.85;;;;;;;10.47;72.29;101264.31;1860166;77;21145;-59
2021/12/09 05:51:53;;;;;;;24.00;4.80;;;;;;;10.84;71.96;101273.70;1871767;76;21136;-61
2021/12/09 05:54:22;;;;;;;17.90;5.35;;;;;;;11.65;70.87;101274.09;1850566;77;21579;-59
2021/12/09 05:56:51;;;;;;;14.83;4.50;;;;;;;12.52;69.80;101274.00;1855988;76;21126;-59
2021/12/09 05:59:20;;;;;;;16.60;3.65;;;;;;;13.35;68.54;101275.98;1860116;77;21145;-59
2021/12/09 06:01:49;;;;;;;9.40;3.00;;;;;;;14.11;67.10;101277.55;1871867;76;21034;-61
2021/12/09 06:04:18;;;;;;;11.12;3.17;;;;;;;14.68;65.87;101276.25;1882129;76;21090;-62
2021/12/09 06:06:47;;;;;;;8.10;3.02;;;;;;;14.54;65.72;101280.86;1865478;76;21107;-59
2021/12/09 06:09:18;;;;;;;10.75;3.40;;;;;;;14.31;65.50;101283.72;1849871;77;21108;-60
2021/12/09 06:11:49;;;;;;;9.60;3.20;;;;;;;14.09;65.05;101289.98;1850483;77;21596;-60
2021/12/09 06:14:18;;;;;;;14.40;3.55;;;;;;;14.12;64.25;101294.30;1850615;77;21032;-60
2021/12/09 06:16:47;;;;;;;11.55;3.75;;;;;;;13.90;64.31;101302.70;1850576;77;21052;-60
2021/12/09 06:19:16;;;;;;;8.28;3.30;;;;;;;13.68;64.47;101309.88;1850789;77;21067;-61
2021/12/09 06:21:44;;;;;;;11.20;4.25;;;;;;;13.46;64.60;101305.95;1850641;77;21489;-62
2021/12/09 06:24:14;;;;;;;12.93;5.10;;;;;;;13.16;64.70;101312.88;1850465;77;21157;-59
2021/12/09 06:26:43;;;;;;;7.72;4.40;;;;;;;12.90;64.95;101316.11;1850707;77;21135;-59
2021/12/09 06:29:11;;;;;;;11.30;4.00;;;;;;;12.71;65.31;101321.26;1850162;77;21101;-61
2021/12/09 06:31:40;;;;;;;11.33;3.90;;;;;;;12.52;65.64;101322.44;1849489;77;21070;-60
2021/12/09 06:34:11;;;;;;;12.28;3.80;;;;;;;12.38;65.76;101322.55;1849399;77;21070;-61
2021/12/09 06:36:41;;;;;;;15.55;4.60;;;;;;;12.22;65.96;101329.70;1849291;77;21047;-61
2021/12/09 06:39:12;;;;;;;14.83;3.67;;;;;;;12.19;66.20;101331.16;1849412;77;21050;-65
2021/12/09 06:41:41;;;;;;;12.15;3.67;;;;;;;12.18;66.31;101331.20;1849427;77;21058;-67
2021/12/09 06:44:09;;;;;;;14.68;4.47;;;;;;;12.18;66.31;101329.88;1851064;77;21082;-66
2021/12/09 06:46:39;;;;;;;12.90;3.70;;;;;;;12.21;66.30;101337.67;1858216;77;21089;-66
2021/12/09 06:49:07;;;;;;;12.75;3.85;;;;;;;12.19;66.18;101334.23;1857957;77;21509;-68
2021/12/09 06:51:36;;;;;;;15.65;4.53;;;;;;;12.17;66.15;101336.91;1858128;77;21152;-61
2021/12/09 06:54:05;;;;;;;17.70;3.98;;;;;;;12.15;66.16;101346.67;1858105;77;21148;-59
2021/12/09 06:56:36;;;;;;;8.65;4.17;;;;;;;12.13;66.25;101349.36;1863597;76;21110;-57
2021/12/09 06:59:04;;;;;;;9.00;2.85;;;;;;;12.14;66.26;101348.92;1867669;77;21531;-61
2021/12/09 07:01:34;;;;;;;8.63;3.20;;;;;;;12.11;66.14;101350.34;1868013;75;21051;-62
2021/12/09 07:04:03;;;;;;;9.53;4.60;;;;;;;12.12;66.24;101349.45;1873248;75;21102;-61
2021/12/09 07:06:32;;;;;;;12.03;2.92;;;;;;;12.09;66.25;101352.19;1865755;77;21046;-61
2021/12/09 07:09:03;;;;;;;7.95;3.30;;;;;;;12.06;66.16;101357.12;1865630;77;21139;-60
2021/12/09 07:11:32;;;;;;;10.58;3.25;;;;;;;12.07;66.10;101361.47;1865637;77;21113;-62
2021/12/09 07:14:02;;;;;;;7.30;3.05;;;;;;;12.18;65.98;101362.41;1865640;77;21514;-60
2021/12/09 07:16:31;;;;;;;8.38;2.72;;;;;;;12.63;65.45;101360.77;1865683;77;21260;-61
2021/12/09 07:19:00;;;;;;;12.20;2.55;;;;;;;12.92;64.94;101362.30;1865641;77;21167;-60
2021/12/09 07:21:29;;;;;;;6.33;2.27;;;;;;;13.11;64.64;101366.40;1865611;77;21137;-61
2021/12/09 07:23:57;;;;;;;6.67;2.35;;;;;;;13.25;64.26;101374.66;1865604;77;21074;-61
2021/12/09 07:26:28;;;;;;;4.28;1.80;;;;;;;13.31;64.20;101369.61;1865663;77;21087;-59
2021/12/09 07:28:57;;;;;;;5.22;1.85;;;;;;;13.21;64.16;101377.50;1865654;76;21075;-60
2021/12/09 07:31:28;;;;;;;6.17;2.20;;;;;;;13.19;64.03;101378.02;1865638;77;21438;-59
2021/12/09 07:33:57;;;;;;;4.55;2.08;;;;;;;13.02;63.43;101383.51;1861529;77;21109;-59
2021/12/09 07:36:27;;;;;;;6.03;2.08;;;;;;;12.87;63.63;101372.19;1879176;75;21032;-62
2021/12/09 07:38:55;;;;;;;6.85;1.87;;;;;;;12.72;63.63;101379.77;1896201;75;21041;-59
2021/12/09 07:41:26;;;;;;;7.95;2.15;;;;;;;12.69;63.74;101390.48;1864276;77;21028;-60
2021/12/09 07:43:55;;;;;;;4.78;1.87;;;;;;;12.70;63.89;101396.62;1852195;76;21039;-59
2021/12/09 07:46:24;;;;;;;5.90;1.72;;;;;;;12.73;63.83;101405.77;1836218;78;21439;-60
2021/12/09 07:48:53;;;;;;;4.50;1.60;;;;;;;12.81;63.62;101393.58;1836326;78;21165;-60
2021/12/09 07:51:22;;;;;;;4.35;1.77;;;;;;;12.87;63.46;101389.37;1836198;78;21158;-59
2021/12/09 07:53:51;;;;;;;6.75;1.65;;;;;;;12.87;63.20;101395.97;1836106;78;21566;-60
2021/12/09 07:56:20;;;;;;;5.05;2.10;;;;;;;12.78;62.95;101396.33;1851747;77;21177;-60
2021/12/09 07:58:49;;;;;;;10.18;2.35;;;;;;;12.70;62.56;101398.80;1915608;75;21132;-60
2021/12/09 08:01:18;;;;;;;5.00;2.10;;;;;;;12.69;62.73;101402.38;1915502;75;21139;-59
2021/12/09 08:03:47;;;;;;;8.13;2.35;;;;;;;12.68;62.83;101394.03;1915440;74;21058;-60
2021/12/09 08:06:16;;;;;;;6.47;2.02;;;;;;;12.69;62.81;101390.48;1915402;75;21558;-60
2021/12/09 08:08:45;;;;;;;7.60;2.27;;;;;;;12.75;62.70;101391.56;1915433;74;21050;-59
2021/12/09 08:11:13;;;;;;;6.47;2.20;;;;;;;12.87;62.49;101392.89;1915493;75;21057;-60
2021/12/09 08:13:42;;;;;;;4.22;1.45;;;;;;;13.08;61.84;101385.91;1915504;75;21139;-59
2021/12/09 08:16:11;;;;;;;7.55;1.70;;;;;;;13.41;60.82;101387.28;1915729;75;21179;-59
2021/12/09 08:18:53;;;;;;;6.97;1.80;;;;;;;13.63;60.31;101383.29;1915469;75;21053;-60
2021/12/09 08:21:13;;;;;;;6.78;1.65;;;;;;;13.72;60.27;101388.20;1913761;74;21082;-60
2021/12/09 08:23:42;;;;;;;5.35;1.60;;;;;;;13.75;60.58;101385.44;1915471;74;21066;-60
2021/12/09 08:26:11;;;;;;;4.35;1.57;;;;;;;13.79;60.46;101383.05;1915503;73;21515;-59
2021/12/09 08:28:40;;;;;;;4.58;1.47;;;;;;;13.69;60.42;101388.34;1915727;75;21041;-59
2021/12/09 08:31:09;;;;;;;5.40;1.72;;;;;;;13.47;60.28;101390.55;1915490;75;21149;-60
2021/12/09 08:33:37;;;;;;;4.37;1.47;;;;;;;13.40;60.65;101387.75;1915695;73;21006;-61
2021/12/09 08:36:06;;;;;;;7.17;2.10;;;;;;;13.34;60.13;101386.69;1950172;72;21011;-60
2021/12/09 08:38:36;;;;;;;8.50;1.80;;;;;;;13.18;60.33;101386.86;1984403;72;21543;-62
2021/12/09 08:41:07;;;;;;;6.62;1.98;;;;;;;13.02;60.16;101387.48;1939130;72;21014;-60
2021/12/09 08:43:37;;;;;;;3.90;1.50;;;;;;;12.86;60.52;101386.34;1915412;75;21446;-62
2021/12/09 08:46:06;;;;;;;5.55;1.65;;;;;;;12.78;60.73;101382.67;1915685;73;21104;-60
2021/12/09 08:48:35;;;;;;;4.78;1.45;;;;;;;12.70;60.79;101381.62;1915477;75;21070;-60
2021/12/09 08:51:04;;;;;;;6.50;1.70;;;;;;;12.58;60.58;101384.73;1915795;73;21492;-60
2021/12/09 08:53:33;;;;;;;6.53;1.67;;;;;;;12.51;60.74;101391.16;1963805;72;21035;-59
2021/12/09 08:56:02;;;;;;;9.00;1.57;;;;;;;12.41;61.10;101390.61;1969521;72;21057;-63
2021/12/09 08:58:31;;;;;;;1.95;1.20;;;;;;;12.35;61.46;101394.34;1943958;73;21127;-64
2021/12/09 09:01:01;;;;;;;6.08;1.82;;;;;;;12.27;61.71;101399.05;1942518;73;21038;-64
2021/12/09 09:03:29;;;;;;;5.83;1.45;;;;;;;12.19;61.93;101394.95;1915499;75;21027;-65
2021/12/09 09:06:01;;;;;;;7.28;2.62;;;;;;;12.12;62.15;101394.32;1920432;73;21137;-65
2021/12/09 09:08:28;;;;;;;10.85;2.75;;;;;;;12.07;62.35;101393.14;1931488;73;21160;-65
2021/12/09 09:10:57;;;;;;;6.15;1.90;;;;;;;12.16;62.54;101397.25;1929105;73;21227;-65
2021/12/09 09:13:26;;;;;;;9.90;1.57;;;;;;;12.37;62.52;101391.65;1930719;73;21088;-65
2021/12/09 09:15:55;;;;;;;6.45;1.45;;;;;;;12.49;62.09;101396.50;1946345;73;21108;-65
2021/12/09 09:18:24;;;;;;;8.63;1.70;;;;;;;12.44;61.74;101404.19;1949431;73;21545;-65
2021/12/09 09:20:53;;;;;;;5.78;1.72;;;;;;;12.42;61.47;101400.27;1949572;73;20999;-65
2021/12/09 09:23:22;;;;;;;5.00;1.37;;;;;;;12.46;61.50;101403.20;1949411;73;21540;-64
2021/12/09 09:25:51;;;;;;;3.37;1.57;;;;;;;12.55;61.42;101405.98;1949367;73;21090;-64
2021/12/09 09:28:20;;;;;;;6.53;2.08;;;;;;;12.60;61.19;101409.31;1949451;73;21055;-65
2021/12/09 09:30:56;;;;;;;5.67;1.52;;;;;;;12.68;60.91;101403.74;1949592;73;21096;-64
2021/12/09 09:33:27;;;;;;;3.80;1.72;;;;;;;12.69;60.73;101406.34;1949453;73;21054;-65
2021/12/09 09:35:56;;;;;;;4.95;1.52;;;;;;;12.75;60.83;101415.34;1949527;72;21030;-63
2021/12/09 09:38:25;;;;;;;5.62;1.40;;;;;;;12.77;60.73;101416.61;1949378;72;21195;-65
2021/12/09 09:41:05;;;;;;;8.28;2.45;;;;;;;12.79;60.81;101425.34;1949417;72;21489;-65
2021/12/09 09:43:31;;;;;;;3.72;1.10;;;;;;;12.78;60.72;101424.95;1948624;73;21095;-65
2021/12/09 09:46:01;;;;;;;4.60;0.93;;;;;;;12.83;60.81;101428.73;1946279;73;21015;-65
2021/12/09 09:48:30;;;;;;;3.77;0.98;;;;;;;12.90;60.77;101417.02;1936399;73;21515;-60
2021/12/09 09:50:59;;;;;;;4.90;1.45;;;;;;;12.88;60.27;101421.50;1920389;73;21042;-63
2021/12/09 09:53:28;;;;;;;4.58;1.42;;;;;;;12.85;60.14;101421.60;1915434;75;21096;-64
2021/12/09 09:55:57;;;;;;;2.27;0.90;;;;;;;12.80;59.98;101422.23;1915390;75;21493;-61
2021/12/09 09:58:26;;;;;;;3.25;1.02;;;;;;;12.84;60.17;101422.54;1900918;73;21496;-62
2021/12/09 10:00:55;;;;;;;5.37;1.30;;;;;;;12.91;60.24;101424.89;1893722;76;21519;-62
2021/12/09 10:03:30;;;;;;;4.55;1.07;;;;;;;12.98;60.19;101428.14;1893667;76;21460;-64
2021/12/09 10:05:57;;;;;;;5.00;1.40;;;;;;;13.03;60.15;101430.16;1895639;74;21025;-62
2021/12/09 10:08:26;;;;;;;4.67;1.25;;;;;;;13.03;59.84;101429.30;1893739;76;21095;-61
2021/12/09 10:10:55;;;;;;;4.10;1.32;;;;;;;13.02;59.83;101430.20;1897607;74;21479;-61
2021/12/09 10:13:29;;;;;;;11.10;2.58;;;;;;;13.04;59.79;101430.57;1926607;74;20994;-63
2021/12/09 10:15:58;;;;;;;4.78;1.50;;;;;;;13.04;59.62;101430.57;1924151;74;21060;-62
2021/12/09 10:18:36;;;;;;;2.00;1.32;;;;;;;13.07;59.76;101425.14;1956226;73;21464;-62
2021/12/09 10:21:08;;;;;;;2.10;1.07;;;;;;;13.08;59.77;101429.53;1949905;72;21025;-63
2021/12/09 10:23:44;;;;;;;3.90;1.35;;;;;;;13.09;59.66;101431.23;1925644;74;21026;-61
2021/12/09 10:26:24;;;;;;;5.85;1.10;;;;;;;13.01;59.42;101436.44;1926213;73;21081;-62
2021/12/09 10:28:56;;;;;;;2.80;1.00;;;;;;;12.87;59.46;101435.62;1924571;74;21476;-60
2021/12/09 10:31:28;;;;;;;5.50;1.27;;;;;;;12.75;59.33;101437.80;1925243;74;21026;-62
2021/12/09 10:34:03;;;;;;;3.42;1.00;;;;;;;12.65;59.46;101428.52;1945203;73;21004;-63
2021/12/09 10:36:44;;;;;;;3.55;1.00;;;;;;;12.62;59.63;101432.58;1957941;72;21100;-63
2021/12/09 10:39:18;;;;;;;3.87;0.95;;;;;;;12.60;59.71;101429.13;1947463;73;21421;-63
2021/12/09 10:41:48;;;;;;;5.00;1.22;;;;;;;12.63;59.77;101430.31;1925167;74;21053;-63
2021/12/09 10:44:20;;;;;;;4.15;0.90;;;;;;;12.66;59.55;101436.82;1923609;73;21469;-60
2021/12/09 10:46:55;;;;;;;6.92;1.17;;;;;;;12.63;59.32;101434.28;1925127;74;21050;-60
2021/12/09 10:49:22;;;;;;;1.98;0.85;;;;;;;12.72;58.98;101442.34;1925031;74;21103;-60
2021/12/09 10:51:59;;;;;;;4.22;1.07;;;;;;;13.30;57.77;101434.88;1925116;74;21481;-60
2021/12/09 10:54:37;;;;;;;4.78;1.45;;;;;;;13.38;57.79;101435.89;1925126;74;21445;-62
2021/12/09 10:57:25;;;;;;;7.65;1.20;;;;;;;13.42;58.00;101440.59;1925118;73;21092;-62
2021/12/09 10:59:55;;;;;;;3.72;0.90;;;;;;;13.79;57.34;101440.43;1924520;74;21068;-62
2021/12/09 11:02:25;;;;;;;4.80;1.40;;;;;;;14.61;55.55;101436.05;1925136;73;21489;-61
2021/12/09 11:05:02;;;;;;;6.97;1.50;;;;;;;14.32;55.01;101439.94;1925199;74;21021;-61
2021/12/09 11:07:31;;;;;;;5.37;1.42;;;;;;;14.74;53.97;101427.55;1924556;73;21551;-61
2021/12/09 11:10:22;;;;;;;4.35;1.00;;;;;;;15.76;52.01;101433.75;1925010;74;21021;-62
2021/12/09 11:12:54;;;;;;;3.85;1.32;;;;;;;15.66;51.59;101435.12;1925109;74;21018;-58
2021/12/09 11:15:24;;;;;;;2.90;0.95;;;;;;;15.05;53.06;101438.45;1918805;74;21068;-63
2021/12/09 11:17:53;;;;;;;4.80;1.60;;;;;;;14.52;54.04;101430.27;1934118;73;21053;-60
2021/12/09 11:20:46;;;;;;;5.80;1.25;;;;;;;14.13;54.94;101448.27;1925129;74;21014;-63
2021/12/09 11:23:29;;;;;;;4.87;1.20;;;;;;;13.79;55.67;101449.22;1917851;73;21398;-60
2021/12/09 11:26:01;;;;;;;2.83;1.27;;;;;;;13.39;56.25;101442.03;1964922;73;21514;-60
2021/12/09 11:28:29;;;;;;;6.15;1.20;;;;;;;13.17;56.92;101449.47;1964383;73;21017;-61
2021/12/09 11:31:10;;;;;;;3.77;1.32;;;;;;;13.12;57.33;101453.59;1961817;72;21202;-61
2021/12/09 11:33:41;;;;;;;6.62;1.50;;;;;;;13.01;57.31;101464.20;1917052;73;21453;-60
2021/12/09 11:36:14;;;;;;;5.53;2.02;;;;;;;12.85;57.58;101453.31;1960885;73;21099;-58
2021/12/09 11:38:55;;;;;;;9.40;3.52;;;;;;;12.69;57.83;101464.47;1929968;73;21013;-61
2021/12/09 11:41:34;;;;;;;7.08;1.82;;;;;;;12.66;58.10;101463.24;1936034;73;20994;-61
2021/12/09 11:44:02;;;;;;;5.12;1.90;;;;;;;12.59;58.16;101468.34;1930502;73;21139;-62